sensor_id;sensor_type;location;lat;lon;timestamp;temperature;humidity
13488;DHT22;6816;48.506;9.050;2022-10-31T00:00:51;12.00;96.50
13488;DHT22;6816;48.506;9.050;2022-10-31T00:03:52;12.00;96.60
13488;DHT22;6816;48.506;9.050;2022-10-31T00:06:52;12.00;96.60
13488;DHT22;6816;48.506;9.050;2022-10-31T00:09:53;12.10;96.70
13488;DHT22;6816;48.506;9.050;2022-10-31T00:12:54;12.00;96.70
13488;DHT22;6816;48.506;9.050;2022-10-31T00:15:54;12.00;96.70
13488;DHT22;6816;48.506;9.050;2022-10-31T00:19:00;12.00;96.60
13488;DHT22;6816;48.506;9.050;2022-10-31T00:22:01;12.00;96.60
13488;DHT22;6816;48.506;9.050;2022-10-31T00:25:02;12.00;96.50
13488;DHT22;6816;48.506;9.050;2022-10-31T00:28:04;11.90;96.50
13488;DHT22;6816;48.506;9.050;2022-10-31T00:31:07;12.00;96.50
13488;DHT22;6816;48.506;9.050;2022-10-31T00:34:07;11.90;96.50
13488;DHT22;6816;48.506;9.050;2022-10-31T00:37:08;11.90;96.40
13488;DHT22;6816;48.506;9.050;2022-10-31T00:40:09;11.80;96.30
13488;DHT22;6816;48.506;9.050;2022-10-31T00:43:10;11.80;96.20
13488;DHT22;6816;48.506;9.050;2022-10-31T00:46:12;11.70;96.10
13488;DHT22;6816;48.506;9.050;2022-10-31T00:49:12;11.70;96.10
13488;DHT22;6816;48.506;9.050;2022-10-31T00:52:13;11.80;96.20
13488;DHT22;6816;48.506;9.050;2022-10-31T00:55:14;11.60;96.10
13488;DHT22;6816;48.506;9.050;2022-10-31T00:58:14;11.60;96.00
13488;DHT22;6816;48.506;9.050;2022-10-31T01:01:15;11.50;95.90
13488;DHT22;6816;48.506;9.050;2022-10-31T01:04:15;11.40;95.90
13488;DHT22;6816;48.506;9.050;2022-10-31T01:07:16;11.40;95.90
13488;DHT22;6816;48.506;9.050;2022-10-31T01:10:17;11.30;96.00
13488;DHT22;6816;48.506;9.050;2022-10-31T01:13:18;11.30;96.20
13488;DHT22;6816;48.506;9.050;2022-10-31T01:16:22;11.30;96.30
13488;DHT22;6816;48.506;9.050;2022-10-31T01:19:23;11.30;96.50
13488;DHT22;6816;48.506;9.050;2022-10-31T01:22:23;11.20;96.60
13488;DHT22;6816;48.506;9.050;2022-10-31T01:25:24;11.20;96.60
13488;DHT22;6816;48.506;9.050;2022-10-31T01:28:24;11.20;96.60
13488;DHT22;6816;48.506;9.050;2022-10-31T01:31:28;11.20;96.60
13488;DHT22;6816;48.506;9.050;2022-10-31T01:34:29;11.20;96.60
13488;DHT22;6816;48.506;9.050;2022-10-31T01:37:30;11.20;96.60
13488;DHT22;6816;48.506;9.050;2022-10-31T01:40:31;11.20;96.50
13488;DHT22;6816;48.506;9.050;2022-10-31T01:46:59;11.10;96.50
13488;DHT22;6816;48.506;9.050;2022-10-31T01:50:04;11.10;96.70
13488;DHT22;6816;48.506;9.050;2022-10-31T01:53:06;11.10;96.70
13488;DHT22;6816;48.506;9.050;2022-10-31T01:56:08;11.10;96.80
13488;DHT22;6816;48.506;9.050;2022-10-31T01:59:11;11.00;96.80
13488;DHT22;6816;48.506;9.050;2022-10-31T02:02:13;11.00;96.80
13488;DHT22;6816;48.506;9.050;2022-10-31T02:05:18;11.00;96.80
13488;DHT22;6816;48.506;9.050;2022-10-31T02:08:30;11.10;96.70
13488;DHT22;6816;48.506;9.050;2022-10-31T02:11:33;11.00;96.80
13488;DHT22;6816;48.506;9.050;2022-10-31T02:14:35;10.90;96.50
13488;DHT22;6816;48.506;9.050;2022-10-31T02:17:36;10.90;96.50
13488;DHT22;6816;48.506;9.050;2022-10-31T02:44:20;10.60;96.50
13488;DHT22;6816;48.506;9.050;2022-10-31T02:47:28;10.50;96.60
13488;DHT22;6816;48.506;9.050;2022-10-31T02:50:33;10.50;96.60
13488;DHT22;6816;48.506;9.050;2022-10-31T02:53:35;10.50;96.70
13488;DHT22;6816;48.506;9.050;2022-10-31T02:56:36;10.50;96.70
13488;DHT22;6816;48.506;9.050;2022-10-31T02:59:44;10.40;96.70
13488;DHT22;6816;48.506;9.050;2022-10-31T03:06:09;10.40;96.70
13488;DHT22;6816;48.506;9.050;2022-10-31T03:09:34;10.40;96.70
13488;DHT22;6816;48.506;9.050;2022-10-31T03:15:56;10.30;96.50
13488;DHT22;6816;48.506;9.050;2022-10-31T03:19:08;10.30;96.50
13488;DHT22;6816;48.506;9.050;2022-10-31T03:22:17;10.30;96.40
13488;DHT22;6816;48.506;9.050;2022-10-31T03:25:19;10.20;96.40
13488;DHT22;6816;48.506;9.050;2022-10-31T03:28:27;10.40;96.70
13488;DHT22;6816;48.506;9.050;2022-10-31T03:31:33;10.20;96.50
13488;DHT22;6816;48.506;9.050;2022-10-31T03:34:37;10.10;96.40
13488;DHT22;6816;48.506;9.050;2022-10-31T03:37:40;10.10;96.40
13488;DHT22;6816;48.506;9.050;2022-10-31T03:40:44;10.10;96.40
13488;DHT22;6816;48.506;9.050;2022-10-31T03:43:53;10.00;96.40
13488;DHT22;6816;48.506;9.050;2022-10-31T03:46:55;10.00;96.40
13488;DHT22;6816;48.506;9.050;2022-10-31T03:49:56;9.90;96.40
13488;DHT22;6816;48.506;9.050;2022-10-31T03:53:11;9.90;96.40
13488;DHT22;6816;48.506;9.050;2022-10-31T03:59:39;9.90;96.30
13488;DHT22;6816;48.506;9.050;2022-10-31T04:02:49;9.80;96.30
13488;DHT22;6816;48.506;9.050;2022-10-31T04:05:53;9.80;96.40
13488;DHT22;6816;48.506;9.050;2022-10-31T04:08:58;9.70;96.40
13488;DHT22;6816;48.506;9.050;2022-10-31T04:12:01;9.70;96.40
13488;DHT22;6816;48.506;9.050;2022-10-31T04:15:06;9.70;96.40
13488;DHT22;6816;48.506;9.050;2022-10-31T04:18:08;9.60;96.40
13488;DHT22;6816;48.506;9.050;2022-10-31T04:21:09;9.60;96.50
13488;DHT22;6816;48.506;9.050;2022-10-31T04:24:10;9.60;96.50
13488;DHT22;6816;48.506;9.050;2022-10-31T04:27:11;9.50;96.50
13488;DHT22;6816;48.506;9.050;2022-10-31T04:30:11;9.50;96.50
13488;DHT22;6816;48.506;9.050;2022-10-31T04:33:12;9.50;96.50
13488;DHT22;6816;48.506;9.050;2022-10-31T04:36:13;9.50;96.60
13488;DHT22;6816;48.506;9.050;2022-10-31T04:39:13;9.50;96.60
13488;DHT22;6816;48.506;9.050;2022-10-31T04:42:14;9.50;96.60
13488;DHT22;6816;48.506;9.050;2022-10-31T04:45:15;9.50;96.60
13488;DHT22;6816;48.506;9.050;2022-10-31T04:48:16;9.40;96.60
13488;DHT22;6816;48.506;9.050;2022-10-31T04:51:16;9.40;96.60
13488;DHT22;6816;48.506;9.050;2022-10-31T04:54:17;9.40;96.70
13488;DHT22;6816;48.506;9.050;2022-10-31T04:57:18;9.40;96.70
13488;DHT22;6816;48.506;9.050;2022-10-31T05:00:20;9.40;96.80
13488;DHT22;6816;48.506;9.050;2022-10-31T05:03:21;9.40;96.80
13488;DHT22;6816;48.506;9.050;2022-10-31T05:06:22;9.50;96.90
13488;DHT22;6816;48.506;9.050;2022-10-31T05:09:22;9.50;97.00
13488;DHT22;6816;48.506;9.050;2022-10-31T05:12:23;9.40;97.00
13488;DHT22;6816;48.506;9.050;2022-10-31T05:15:25;9.30;97.00
13488;DHT22;6816;48.506;9.050;2022-10-31T05:18:26;9.40;97.10
13488;DHT22;6816;48.506;9.050;2022-10-31T05:21:27;9.40;97.10
13488;DHT22;6816;48.506;9.050;2022-10-31T05:24:27;9.40;97.20
13488;DHT22;6816;48.506;9.050;2022-10-31T05:27:28;9.40;97.20
13488;DHT22;6816;48.506;9.050;2022-10-31T05:30:30;9.40;97.30
13488;DHT22;6816;48.506;9.050;2022-10-31T05:33:31;9.50;97.40
13488;DHT22;6816;48.506;9.050;2022-10-31T05:36:32;9.50;97.40
13488;DHT22;6816;48.506;9.050;2022-10-31T05:39:32;9.60;97.40
13488;DHT22;6816;48.506;9.050;2022-10-31T05:42:33;9.50;97.30
13488;DHT22;6816;48.506;9.050;2022-10-31T05:45:34;9.50;97.30
13488;DHT22;6816;48.506;9.050;2022-10-31T05:48:35;9.50;97.20
13488;DHT22;6816;48.506;9.050;2022-10-31T05:51:35;9.50;97.30
13488;DHT22;6816;48.506;9.050;2022-10-31T05:54:36;9.50;97.30
13488;DHT22;6816;48.506;9.050;2022-10-31T05:57:36;9.40;97.20
13488;DHT22;6816;48.506;9.050;2022-10-31T06:00:38;9.40;97.20
13488;DHT22;6816;48.506;9.050;2022-10-31T06:03:39;9.40;97.10
13488;DHT22;6816;48.506;9.050;2022-10-31T06:06:39;9.40;97.10
13488;DHT22;6816;48.506;9.050;2022-10-31T06:09:40;9.30;97.00
13488;DHT22;6816;48.506;9.050;2022-10-31T06:12:40;9.30;96.90
13488;DHT22;6816;48.506;9.050;2022-10-31T06:15:41;9.30;96.90
13488;DHT22;6816;48.506;9.050;2022-10-31T06:18:42;9.30;96.90
13488;DHT22;6816;48.506;9.050;2022-10-31T06:21:43;9.20;96.80
13488;DHT22;6816;48.506;9.050;2022-10-31T06:24:43;9.20;96.80
13488;DHT22;6816;48.506;9.050;2022-10-31T06:27:44;9.30;96.90
13488;DHT22;6816;48.506;9.050;2022-10-31T06:30:45;9.20;96.90
13488;DHT22;6816;48.506;9.050;2022-10-31T06:33:46;9.10;96.90
13488;DHT22;6816;48.506;9.050;2022-10-31T06:36:46;9.10;97.00
13488;DHT22;6816;48.506;9.050;2022-10-31T06:39:47;9.10;97.10
13488;DHT22;6816;48.506;9.050;2022-10-31T06:42:59;9.10;97.20
13488;DHT22;6816;48.506;9.050;2022-10-31T06:46:04;9.10;97.20
13488;DHT22;6816;48.506;9.050;2022-10-31T06:49:05;9.10;97.30
13488;DHT22;6816;48.506;9.050;2022-10-31T06:52:05;9.10;97.40
13488;DHT22;6816;48.506;9.050;2022-10-31T06:55:06;9.10;97.40
13488;DHT22;6816;48.506;9.050;2022-10-31T06:58:09;9.10;97.50
13488;DHT22;6816;48.506;9.050;2022-10-31T07:01:10;9.20;97.60
13488;DHT22;6816;48.506;9.050;2022-10-31T07:04:11;9.20;97.70
13488;DHT22;6816;48.506;9.050;2022-10-31T07:07:11;9.20;97.90
13488;DHT22;6816;48.506;9.050;2022-10-31T07:10:12;9.30;98.00
13488;DHT22;6816;48.506;9.050;2022-10-31T07:13:14;9.30;98.10
13488;DHT22;6816;48.506;9.050;2022-10-31T07:16:14;9.30;98.20
13488;DHT22;6816;48.506;9.050;2022-10-31T07:19:15;9.40;98.30
13488;DHT22;6816;48.506;9.050;2022-10-31T07:22:15;9.50;98.80
13488;DHT22;6816;48.506;9.050;2022-10-31T07:25:16;9.60;98.50
13488;DHT22;6816;48.506;9.050;2022-10-31T07:28:16;9.60;98.60
13488;DHT22;6816;48.506;9.050;2022-10-31T07:31:17;9.80;98.70
13488;DHT22;6816;48.506;9.050;2022-10-31T07:34:18;9.80;99.20
13488;DHT22;6816;48.506;9.050;2022-10-31T07:37:18;9.80;98.90
13488;DHT22;6816;48.506;9.050;2022-10-31T07:40:19;9.90;99.00
13488;DHT22;6816;48.506;9.050;2022-10-31T07:43:20;10.00;99.00
13488;DHT22;6816;48.506;9.050;2022-10-31T07:46:22;10.10;99.10
13488;DHT22;6816;48.506;9.050;2022-10-31T07:49:22;10.20;99.20
13488;DHT22;6816;48.506;9.050;2022-10-31T07:52:25;10.20;99.30
13488;DHT22;6816;48.506;9.050;2022-10-31T07:55:26;10.30;99.40
13488;DHT22;6816;48.506;9.050;2022-10-31T07:58:27;10.40;99.60
13488;DHT22;6816;48.506;9.050;2022-10-31T08:01:28;10.50;99.70
13488;DHT22;6816;48.506;9.050;2022-10-31T08:04:29;10.70;99.90
13488;DHT22;6816;48.506;9.050;2022-10-31T08:07:29;10.70;99.90
13488;DHT22;6816;48.506;9.050;2022-10-31T08:10:36;10.90;99.90
13488;DHT22;6816;48.506;9.050;2022-10-31T08:13:37;11.00;99.90
13488;DHT22;6816;48.506;9.050;2022-10-31T08:16:38;11.20;99.90
13488;DHT22;6816;48.506;9.050;2022-10-31T08:19:38;11.20;99.90
13488;DHT22;6816;48.506;9.050;2022-10-31T08:22:39;11.40;99.90
13488;DHT22;6816;48.506;9.050;2022-10-31T08:25:40;11.50;99.90
13488;DHT22;6816;48.506;9.050;2022-10-31T08:28:42;11.60;99.90
13488;DHT22;6816;48.506;9.050;2022-10-31T08:31:42;11.80;99.90
13488;DHT22;6816;48.506;9.050;2022-10-31T08:34:43;11.90;99.90
13488;DHT22;6816;48.506;9.050;2022-10-31T08:37:44;12.00;99.90
13488;DHT22;6816;48.506;9.050;2022-10-31T08:40:48;12.10;99.90
13488;DHT22;6816;48.506;9.050;2022-10-31T08:43:49;12.20;99.90
13488;DHT22;6816;48.506;9.050;2022-10-31T08:46:50;12.30;99.90
13488;DHT22;6816;48.506;9.050;2022-10-31T08:49:50;12.40;99.90
13488;DHT22;6816;48.506;9.050;2022-10-31T08:52:51;12.60;99.90
13488;DHT22;6816;48.506;9.050;2022-10-31T08:55:54;12.70;99.90
13488;DHT22;6816;48.506;9.050;2022-10-31T08:58:55;12.80;99.90
13488;DHT22;6816;48.506;9.050;2022-10-31T09:01:56;12.90;99.90
13488;DHT22;6816;48.506;9.050;2022-10-31T09:04:56;13.00;99.90
13488;DHT22;6816;48.506;9.050;2022-10-31T09:07:58;13.20;99.90
13488;DHT22;6816;48.506;9.050;2022-10-31T09:10:59;13.20;99.90
13488;DHT22;6816;48.506;9.050;2022-10-31T09:14:00;13.40;99.90
13488;DHT22;6816;48.506;9.050;2022-10-31T09:17:00;13.50;99.90
13488;DHT22;6816;48.506;9.050;2022-10-31T09:20:01;13.50;99.90
13488;DHT22;6816;48.506;9.050;2022-10-31T09:26:06;13.80;99.90
13488;DHT22;6816;48.506;9.050;2022-10-31T09:29:07;13.90;99.90
13488;DHT22;6816;48.506;9.050;2022-10-31T09:32:09;14.00;99.90
13488;DHT22;6816;48.506;9.050;2022-10-31T09:35:10;14.10;99.90
13488;DHT22;6816;48.506;9.050;2022-10-31T09:38:13;14.30;99.90
13488;DHT22;6816;48.506;9.050;2022-10-31T09:44:33;14.50;99.80
13488;DHT22;6816;48.506;9.050;2022-10-31T09:51:45;14.80;99.60
13488;DHT22;6816;48.506;9.050;2022-10-31T09:54:56;15.00;99.30
13488;DHT22;6816;48.506;9.050;2022-10-31T09:57:59;15.10;99.70
13488;DHT22;6816;48.506;9.050;2022-10-31T10:01:01;15.30;99.90
13488;DHT22;6816;48.506;9.050;2022-10-31T10:14:20;15.80;98.30
13488;DHT22;6816;48.506;9.050;2022-10-31T10:20:51;16.00;98.30
13488;DHT22;6816;48.506;9.050;2022-10-31T10:24:03;16.10;98.50
13488;DHT22;6816;48.506;9.050;2022-10-31T10:30:48;16.30;98.50
13488;DHT22;6816;48.506;9.050;2022-10-31T10:37:13;16.50;98.20
13488;DHT22;6816;48.506;9.050;2022-10-31T10:40:20;16.70;97.20
13488;DHT22;6816;48.506;9.050;2022-10-31T10:43:36;16.70;97.80
13488;DHT22;6816;48.506;9.050;2022-10-31T10:46:49;16.90;97.80
13488;DHT22;6816;48.506;9.050;2022-10-31T10:50:21;17.10;98.20
13488;DHT22;6816;48.506;9.050;2022-10-31T11:00:34;17.90;96.20
13488;DHT22;6816;48.506;9.050;2022-10-31T11:03:35;18.20;96.90
13488;DHT22;6816;48.506;9.050;2022-10-31T11:06:36;18.40;97.10
13488;DHT22;6816;48.506;9.050;2022-10-31T11:09:37;18.60;96.50
13488;DHT22;6816;48.506;9.050;2022-10-31T11:12:38;18.80;96.00
13488;DHT22;6816;48.506;9.050;2022-10-31T11:16:08;18.90;95.20
13488;DHT22;6816;48.506;9.050;2022-10-31T11:19:22;19.10;93.40
13488;DHT22;6816;48.506;9.050;2022-10-31T11:22:23;19.20;94.20
13488;DHT22;6816;48.506;9.050;2022-10-31T11:25:25;19.40;94.90
13488;DHT22;6816;48.506;9.050;2022-10-31T11:28:28;19.60;94.30
13488;DHT22;6816;48.506;9.050;2022-10-31T11:31:35;19.70;93.70
13488;DHT22;6816;48.506;9.050;2022-10-31T11:34:42;19.90;93.50
13488;DHT22;6816;48.506;9.050;2022-10-31T11:37:47;20.00;92.40
13488;DHT22;6816;48.506;9.050;2022-10-31T11:41:00;20.10;92.50
13488;DHT22;6816;48.506;9.050;2022-10-31T11:44:22;20.10;91.40
13488;DHT22;6816;48.506;9.050;2022-10-31T11:47:31;20.20;91.60
13488;DHT22;6816;48.506;9.050;2022-10-31T11:50:40;20.30;92.10
13488;DHT22;6816;48.506;9.050;2022-10-31T11:53:51;20.40;91.70
13488;DHT22;6816;48.506;9.050;2022-10-31T11:56:52;20.60;91.90
13488;DHT22;6816;48.506;9.050;2022-10-31T11:59:56;20.80;93.20
13488;DHT22;6816;48.506;9.050;2022-10-31T12:03:23;21.00;93.20
13488;DHT22;6816;48.506;9.050;2022-10-31T12:06:35;21.20;91.00
13488;DHT22;6816;48.506;9.050;2022-10-31T12:09:38;21.40;91.40
13488;DHT22;6816;48.506;9.050;2022-10-31T12:15:55;21.40;91.10
13488;DHT22;6816;48.506;9.050;2022-10-31T12:22:20;21.30;90.60
13488;DHT22;6816;48.506;9.050;2022-10-31T12:25:44;21.30;90.00
13488;DHT22;6816;48.506;9.050;2022-10-31T12:33:16;21.10;89.30
13488;DHT22;6816;48.506;9.050;2022-10-31T12:36:39;21.00;89.50
